Opa-locka, FL (33054)

7:22 PM EST on February 22, 2017 (GMT -0500)
G Compound 2.0 Oak Grove | | Change Station

Elev 37 ft 25.92 °N, 80.19 °W | Updated 22 seconds ago

Partly Cloudy
Partly Cloudy
66.6 °F
Feels Like 66.6 °F
N
2.7
Wind Variable Wind from SSW

Today
High -- | Low -- °F
--% Chance of Precip.
Yesterday
High -- | Low -- °F
Precip. -- in
Pressure 29.65 in
Visibility 10.0 miles
Clouds Few 2000 ft
Dew Point 65 °F
Humidity 94%
Rainfall 1.27 in
Snow Depth Not available.
6:50 AM 6:18 PM
Waning Crescent, 14% visible
METAR KOPF 222353Z 19010KT 10SM FEW020 20/17 A2965 RMK AO2 SLP040 60052 T02000172 55009 $
Pressure 29.65 in
Visibility 10.0 miles
Clouds Few 2000 ft
Dew Point 65 °F
Humidity 94%
Rainfall 1.27 in
Snow Depth Not available.
6:50 AM 6:18 PM
Waning Crescent, 14% visible
METAR KOPF 222353Z 19010KT 10SM FEW020 20/17 A2965 RMK AO2 SLP040 60052 T02000172 55009 $

Get Your Daily Forecast Email!

Thanks for signing up!

Be on the lookout for a verification email in your inbox.

You'll start receiving the daily forecast at 8 AM.

×

10-Day Weather Forecast

Almanac

Astronomy

Feb. 22, 2017 Rise Set
Actual Time
Civil Twilight
Nautical Twilight
Astronomical Twilight
Moon
Length of Visible Light
Length of Day
Tomorrow will be .
, % of the Moon is Illuminated

Today's Extremes

State Highs State Lows

Community

WunderPhotos

Upload Photos

1,962,540 photos uploaded!

WunderBlog® & News

Nearby

Air Quality

  Air Quality AQ Index Pollutant
Not available.

Snow Depth

Station Depth Elevation

Earthquake Activity

City Distance Mag. Time & Date
Minimum magnitude displayed is 2.5.

Coastal Water Temperatures

Place Temperature

Stations

Nearby Weather Stations

Station Location Temp. Windchill Dew Point Humidity Wind Precip. Elev Updated Type
                   

Watches & Warnings

There are currently no watches in effect.